Euxton, United Kingdom
Current Conditions -  °F | °C
As of 4:50 PM on Friday 26 Dec 2014 (Local Time) from EGNH Reporting Station
Moderate Rain Moderate Rain  
Wind Chill: 30°   Ceiling: Unl
Heat Index: 39°   Visibility: 4mi
Dew Point: 36°   Wind: 17mph
Humidity: 87%   Direction: 110°ESE
Pressure: 29.94"   Gusts: NA
Location:  53.67°N, 2.68°W
Report Text: EGNH 261650Z 11015KT 6000 RA FEW011 04/02 Q1014
Loading
Personal Weather Stations






























Interactive Weather Map New forecast layout! Learn more

10-Day Weather Forecast

Advertisements
Track Severe Weather on mobile